createdAt,value
2018-02-19T00:00:58.017Z,60.38
2018-02-19T00:03:25.563Z,60.77
2018-02-19T00:05:53.102Z,60.60
2018-02-19T00:08:20.664Z,60.67
2018-02-19T00:10:48.204Z,61.06
2018-02-19T00:13:15.753Z,61.34
2018-02-19T00:15:43.593Z,61.34
2018-02-19T00:18:14.659Z,61.54
2018-02-19T00:20:42.196Z,61.49
2018-02-19T00:23:09.754Z,61.90
2018-02-19T00:25:37.291Z,61.82
2018-02-19T00:28:04.828Z,61.73
2018-02-19T00:30:32.406Z,62.27
2018-02-19T00:32:59.917Z,62.23
2018-02-19T00:35:27.448Z,62.19
2018-02-19T00:37:55.007Z,62.43
2018-02-19T00:40:22.902Z,62.36
2018-02-19T00:42:50.427Z,62.54
2018-02-19T00:45:17.989Z,62.70
2018-02-19T00:47:45.526Z,62.67
2018-02-19T00:50:13.056Z,62.72
2018-02-19T00:52:40.647Z,63.00
2018-02-19T00:55:08.458Z,63.13
2018-02-19T00:57:36.024Z,63.33
2018-02-19T01:00:03.883Z,63.46
2018-02-19T01:02:31.453Z,63.23
2018-02-19T01:04:58.980Z,63.19
2018-02-19T01:07:26.533Z,63.14
2018-02-19T01:09:54.083Z,63.12
2018-02-19T01:12:21.628Z,63.11
2018-02-19T01:14:49.212Z,63.11
2018-02-19T01:17:16.738Z,63.16
2018-02-19T01:19:44.262Z,63.20
2018-02-19T01:22:11.828Z,63.20
2018-02-19T01:24:39.344Z,63.26
2018-02-19T01:27:06.889Z,63.37
2018-02-19T01:29:34.450Z,63.14
2018-02-19T01:32:01.981Z,63.52
2018-02-19T01:34:29.507Z,63.71
2018-02-19T01:36:57.065Z,63.63
2018-02-19T01:39:24.592Z,63.38
2018-02-19T01:41:52.192Z,63.47
2018-02-19T01:44:19.752Z,63.21
2018-02-19T01:46:47.278Z,63.39
2018-02-19T01:49:14.813Z,63.40
2018-02-19T01:51:42.670Z,63.27
2018-02-19T01:54:10.224Z,63.34
2018-02-19T01:56:37.749Z,63.32
2018-02-19T01:59:05.303Z,63.76
2018-02-19T02:01:32.868Z,63.99
2018-02-19T02:04:00.419Z,63.48
2018-02-19T02:06:27.994Z,63.54
2018-02-19T02:08:55.516Z,63.44
2018-02-19T02:11:23.047Z,63.38
2018-02-19T02:13:50.599Z,63.41
2018-02-19T02:16:18.123Z,63.57
2018-02-19T02:18:45.650Z,63.61
2018-02-19T02:21:13.333Z,63.67
2018-02-19T02:23:40.831Z,63.57
2018-02-19T02:26:08.613Z,63.47
2018-02-19T02:28:36.174Z,63.30
2018-02-19T02:31:03.743Z,63.46
2018-02-19T02:33:31.287Z,63.29
2018-02-19T02:35:58.873Z,63.57
2018-02-19T02:38:26.395Z,63.44
2018-02-19T02:40:54.178Z,63.53
2018-02-19T02:43:22.150Z,63.59
2018-02-19T02:45:49.676Z,63.56
2018-02-19T02:48:17.213Z,63.72
2018-02-19T02:50:44.774Z,63.79
2018-02-19T02:53:12.300Z,63.96
2018-02-19T02:55:39.844Z,64.17
2018-02-19T02:58:07.395Z,64.00
2018-02-19T03:00:34.957Z,64.20
2018-02-19T03:03:02.494Z,64.15
2018-02-19T03:05:30.052Z,64.40
2018-02-19T03:07:57.581Z,64.19
2018-02-19T03:10:25.415Z,64.40
2018-02-19T03:12:52.976Z,64.05
2018-02-19T03:15:20.498Z,64.36
2018-02-19T03:17:48.407Z,64.42
2018-02-19T03:20:15.963Z,64.28
2018-02-19T03:22:43.495Z,64.25
2018-02-19T03:25:11.293Z,64.26
2018-02-19T03:27:39.183Z,64.01
2018-02-19T03:30:06.715Z,64.56
2018-02-19T03:32:34.242Z,64.47
2018-02-19T03:35:01.811Z,64.66
2018-02-19T03:37:29.341Z,64.52
2018-02-19T03:39:56.850Z,64.84
2018-02-19T03:42:24.434Z,64.79
2018-02-19T03:44:52.006Z,65.23
2018-02-19T03:47:19.539Z,65.12
2018-02-19T03:49:47.099Z,66.08
2018-02-19T03:52:14.628Z,65.67
2018-02-19T03:54:42.164Z,65.66
2018-02-19T03:57:09.711Z,65.19
2018-02-19T03:59:37.241Z,65.39
2018-02-19T04:02:05.126Z,65.17
2018-02-19T04:04:32.687Z,65.15
2018-02-19T04:07:00.218Z,65.31
2018-02-19T04:09:27.814Z,65.00
2018-02-19T04:11:55.374Z,65.03
2018-02-19T04:14:22.895Z,65.10
2018-02-19T04:16:50.426Z,65.98
2018-02-19T04:19:17.981Z,66.25
2018-02-19T04:21:45.498Z,66.29
2018-02-19T04:24:13.040Z,66.03
2018-02-19T04:26:40.603Z,66.06
2018-02-19T04:29:08.131Z,65.83
2018-02-19T04:31:35.658Z,65.84
2018-02-19T04:34:03.251Z,66.07
2018-02-19T04:36:30.782Z,65.70
2018-02-19T04:38:58.397Z,65.72
2018-02-19T04:41:25.941Z,65.73
2018-02-19T04:43:53.746Z,65.84
2018-02-19T04:46:23.134Z,66.37
2018-02-19T04:48:50.691Z,66.95
2018-02-19T04:51:18.219Z,66.83
2018-02-19T04:53:45.738Z,66.86
2018-02-19T04:56:13.303Z,66.93
2018-02-19T04:58:41.159Z,66.75
2018-02-19T05:01:08.694Z,66.82
2018-02-19T05:03:36.244Z,66.79
2018-02-19T05:06:03.762Z,66.96
2018-02-19T05:08:31.610Z,67.06
2018-02-19T05:10:59.162Z,66.87
2018-02-19T05:13:26.691Z,67.03
2018-02-19T05:15:54.211Z,67.44
2018-02-19T05:18:21.770Z,67.55
2018-02-19T05:20:49.308Z,67.21
2018-02-19T05:23:17.074Z,67.17
2018-02-19T05:25:44.635Z,67.30
2018-02-19T05:28:12.164Z,67.85
2018-02-19T05:30:39.700Z,67.92
2018-02-19T05:33:07.233Z,68.04
2018-02-19T05:35:34.757Z,68.30
2018-02-19T05:38:02.279Z,68.26
2018-02-19T05:40:30.112Z,67.94
2018-02-19T05:42:57.677Z,67.95
2018-02-19T05:45:25.190Z,67.80
2018-02-19T05:47:52.751Z,67.97
2018-02-19T05:50:20.276Z,67.88
2018-02-19T05:52:47.884Z,67.79
2018-02-19T05:55:15.441Z,67.92
2018-02-19T05:57:43.237Z,68.12
2018-02-19T06:00:10.750Z,68.45
2018-02-19T06:02:38.306Z,68.23
2018-02-19T06:05:05.835Z,68.03
2018-02-19T06:07:33.350Z,68.08
2018-02-19T06:10:00.980Z,68.12
2018-02-19T06:12:28.511Z,68.42
2018-02-19T06:14:56.049Z,68.51
2018-02-19T06:17:23.608Z,68.34
2018-02-19T06:19:51.401Z,68.61
2018-02-19T06:22:19.259Z,68.71
2018-02-19T06:24:46.825Z,68.82
2018-02-19T06:27:14.354Z,68.64
2018-02-19T06:29:41.877Z,68.34
2018-02-19T06:32:09.429Z,68.57
2018-02-19T06:34:36.963Z,68.62
2018-02-19T06:37:04.483Z,68.70
2018-02-19T06:39:32.039Z,68.48
2018-02-19T06:41:59.575Z,68.28
2018-02-19T06:44:27.121Z,68.25
2018-02-19T06:46:54.673Z,68.24
2018-02-19T06:49:22.517Z,68.08
2018-02-19T06:51:50.048Z,68.28
2018-02-19T06:54:17.636Z,68.00
2018-02-19T06:56:45.513Z,68.22
2018-02-19T06:59:13.028Z,68.59
2018-02-19T07:01:40.647Z,68.93
2018-02-19T07:04:08.212Z,68.80
2018-02-19T07:06:35.766Z,68.50
2018-02-19T07:09:03.426Z,68.30
2018-02-19T07:11:31.240Z,68.64
2018-02-19T07:13:58.755Z,68.57
2018-02-19T07:16:26.294Z,68.58
2018-02-19T07:18:53.816Z,68.61
2018-02-19T07:21:21.343Z,68.33
2018-02-19T07:23:48.921Z,69.21
2018-02-19T07:26:16.465Z,69.15
2018-02-19T07:28:43.996Z,69.19
2018-02-19T07:31:11.567Z,68.63
2018-02-19T07:33:39.115Z,69.14
2018-02-19T07:36:06.641Z,68.34
2018-02-19T07:38:34.215Z,68.42
2018-02-19T07:41:01.755Z,67.95
2018-02-19T07:43:29.290Z,67.70
2018-02-19T07:45:56.847Z,67.31
2018-02-19T07:48:24.417Z,66.73
2018-02-19T07:50:51.943Z,66.47
2018-02-19T07:53:20.203Z,66.33
2018-02-19T07:55:47.990Z,66.32
2018-02-19T07:58:15.616Z,66.19
2018-02-19T08:00:43.180Z,65.77
2018-02-19T08:03:10.724Z,65.44
2018-02-19T08:05:38.258Z,65.43
2018-02-19T08:08:05.876Z,65.68
2018-02-19T08:10:33.663Z,65.58
2018-02-19T08:13:01.430Z,64.99
2018-02-19T08:15:28.981Z,64.95
2018-02-19T08:17:56.757Z,66.58
2018-02-19T08:20:24.279Z,66.36
2018-02-19T08:22:51.845Z,66.60
2018-02-19T08:25:19.379Z,66.02
2018-02-19T08:27:46.964Z,65.98
2018-02-19T08:30:14.568Z,66.13
2018-02-19T08:32:42.093Z,66.34
2018-02-19T08:35:09.618Z,66.75
2018-02-19T08:37:37.449Z,66.12
2018-02-19T08:40:05.015Z,66.54
2018-02-19T08:42:32.576Z,66.48
2018-02-19T08:45:00.137Z,65.82
2018-02-19T08:47:27.668Z,65.26
2018-02-19T08:49:55.211Z,65.36
2018-02-19T08:52:22.755Z,65.19
2018-02-19T08:54:50.288Z,66.88
2018-02-19T08:57:17.806Z,66.02
2018-02-19T08:59:45.349Z,65.19
2018-02-19T09:02:12.909Z,64.67
2018-02-19T09:04:40.739Z,64.75
2018-02-19T09:07:08.302Z,63.52
2018-02-19T09:09:35.855Z,65.12
2018-02-19T09:12:03.442Z,64.29
2018-02-19T09:14:31.268Z,62.94
2018-02-19T09:16:58.781Z,62.34
2018-02-19T09:19:26.606Z,61.15
2018-02-19T09:21:54.463Z,61.23
2018-02-19T09:24:21.995Z,61.86
2018-02-19T09:26:49.892Z,61.87
2018-02-19T09:29:17.437Z,61.49
2018-02-19T09:31:45.217Z,61.67
2018-02-19T09:34:13.004Z,61.41
2018-02-19T09:36:40.538Z,62.10
2018-02-19T09:39:08.072Z,61.81
2018-02-19T09:41:35.602Z,62.07
2018-02-19T09:44:03.157Z,61.98
2018-02-19T09:46:30.683Z,61.15
2018-02-19T09:48:58.211Z,61.20
2018-02-19T09:51:26.006Z,60.73
2018-02-19T09:53:53.535Z,61.16
2018-02-19T09:56:21.337Z,61.32
2018-02-19T09:58:48.987Z,61.44
2018-02-19T10:01:16.507Z,61.15
2018-02-19T10:03:44.025Z,61.45
2018-02-19T10:06:11.583Z,61.13
2018-02-19T10:08:39.195Z,60.33
2018-02-19T10:11:06.717Z,59.61
2018-02-19T10:13:34.291Z,59.88
2018-02-19T10:16:02.131Z,59.64
2018-02-19T10:18:29.659Z,59.38
2018-02-19T10:20:57.250Z,58.76
2018-02-19T10:23:24.777Z,58.79
2018-02-19T10:25:52.578Z,58.53
2018-02-19T10:28:20.159Z,57.77
2018-02-19T10:30:47.999Z,58.06
2018-02-19T10:33:15.546Z,58.97
2018-02-19T10:35:43.165Z,60.88
2018-02-19T10:38:10.688Z,60.20
2018-02-19T10:40:38.209Z,58.57
2018-02-19T10:43:05.773Z,57.98
2018-02-19T10:45:33.320Z,60.09
2018-02-19T10:48:01.131Z,60.34
2018-02-19T10:50:29.001Z,59.41
2018-02-19T10:52:56.867Z,58.57
2018-02-19T10:55:24.379Z,58.18
2018-02-19T10:57:52.039Z,57.66
2018-02-19T11:00:25.796Z,56.25
2018-02-19T11:02:53.347Z,56.04
2018-02-19T11:05:20.863Z,54.78
2018-02-19T11:07:52.159Z,55.17
2018-02-19T11:10:19.799Z,54.27
2018-02-19T11:12:48.155Z,54.28
2018-02-19T11:15:15.683Z,53.92
2018-02-19T11:17:43.260Z,54.74
2018-02-19T11:20:10.798Z,54.38
2018-02-19T11:22:38.360Z,54.97
2018-02-19T11:25:06.216Z,54.30
2018-02-19T11:27:33.738Z,53.96
2018-02-19T11:30:01.299Z,55.07
2018-02-19T11:32:28.909Z,55.48
2018-02-19T11:34:56.484Z,56.03
2018-02-19T11:37:24.026Z,55.37
2018-02-19T11:39:51.607Z,54.40
2018-02-19T11:42:19.173Z,53.97
2018-02-19T11:44:46.698Z,53.71
2018-02-19T11:47:14.386Z,53.47
2018-02-19T11:49:41.955Z,54.10
2018-02-19T11:52:09.509Z,53.73
2018-02-19T11:54:37.205Z,52.32
2018-02-19T11:57:04.747Z,52.61
2018-02-19T11:59:32.287Z,52.65
2018-02-19T12:01:59.845Z,52.80
2018-02-19T12:04:27.377Z,52.39
2018-02-19T12:06:54.934Z,52.23
2018-02-19T12:09:22.840Z,52.09
2018-02-19T12:11:50.391Z,51.94
2018-02-19T12:14:17.909Z,51.24
2018-02-19T12:16:45.699Z,50.08
2018-02-19T12:19:13.266Z,50.31
2018-02-19T12:21:41.036Z,50.41
2018-02-19T12:24:08.594Z,50.55
2018-02-19T12:26:36.125Z,50.05
2018-02-19T12:29:03.661Z,50.67
2018-02-19T12:31:31.216Z,51.26
2018-02-19T12:33:58.738Z,51.99
2018-02-19T12:36:26.611Z,51.71
2018-02-19T12:38:54.278Z,51.52
2018-02-19T12:41:21.799Z,51.85
2018-02-19T12:43:49.319Z,52.55
2018-02-19T12:46:16.904Z,51.71
2018-02-19T12:48:44.440Z,51.76
2018-02-19T12:51:12.023Z,51.84
2018-02-19T12:53:39.605Z,52.24
2018-02-19T12:56:07.130Z,52.04
2018-02-19T12:58:34.683Z,52.96
2018-02-19T13:01:02.291Z,52.50
2018-02-19T13:03:30.832Z,51.92
2018-02-19T13:06:00.397Z,51.51
2018-02-19T13:08:27.982Z,50.92
2018-02-19T13:10:55.523Z,51.20
2018-02-19T13:13:23.059Z,49.81
2018-02-19T13:15:50.658Z,50.14
2018-02-19T13:18:18.475Z,50.47
2018-02-19T13:20:45.985Z,49.43
2018-02-19T13:23:13.844Z,50.16
2018-02-19T13:25:41.531Z,49.97
2018-02-19T13:28:09.365Z,50.81
2018-02-19T13:30:37.233Z,49.12
2018-02-19T13:33:04.843Z,49.58
2018-02-19T13:35:32.662Z,49.76
2018-02-19T13:38:00.214Z,50.16
2018-02-19T13:40:28.090Z,49.66
2018-02-19T13:42:55.620Z,49.15
2018-02-19T13:45:23.184Z,49.74
2018-02-19T13:47:50.932Z,49.88
2018-02-19T13:50:18.464Z,50.28
2018-02-19T13:52:46.020Z,49.80
2018-02-19T13:55:13.542Z,49.38
2018-02-19T13:57:41.088Z,49.45
2018-02-19T14:00:08.649Z,49.44
2018-02-19T14:02:36.186Z,49.10
2018-02-19T14:05:03.786Z,48.47
2018-02-19T14:07:31.816Z,48.24
2018-02-19T14:09:59.340Z,50.54
2018-02-19T14:12:26.876Z,50.86
2018-02-19T14:14:54.875Z,50.76
2018-02-19T14:17:22.735Z,50.08
2018-02-19T14:19:50.263Z,49.85
2018-02-19T14:22:17.835Z,49.25
2018-02-19T14:24:46.210Z,48.80
2018-02-19T14:27:13.959Z,49.01
2018-02-19T14:29:41.656Z,49.22
2018-02-19T14:32:09.186Z,49.54
2018-02-19T14:34:37.002Z,50.18
2018-02-19T14:37:04.627Z,50.18
2018-02-19T14:39:32.553Z,50.23
2018-02-19T14:42:00.409Z,51.03
2018-02-19T14:44:28.001Z,49.70
2018-02-19T14:46:55.827Z,48.84
2018-02-19T14:49:23.347Z,48.79
2018-02-19T14:51:50.923Z,49.39
2018-02-19T14:54:20.915Z,50.61
2018-02-19T14:56:48.736Z,51.05
2018-02-19T14:59:16.325Z,50.78
2018-02-19T15:01:43.858Z,50.70
2018-02-19T15:04:11.384Z,51.37
2018-02-19T15:06:38.947Z,51.22
2018-02-19T15:09:06.733Z,51.10
2018-02-19T15:11:34.268Z,51.16
2018-02-19T15:14:01.861Z,50.76
2018-02-19T15:16:29.724Z,50.56
2018-02-19T15:18:57.284Z,50.71
2018-02-19T15:21:24.864Z,50.49
2018-02-19T15:23:52.433Z,51.44
2018-02-19T15:26:19.952Z,51.91
2018-02-19T15:28:47.512Z,52.17
2018-02-19T15:31:15.039Z,52.40
2018-02-19T15:33:42.586Z,53.05
2018-02-19T15:36:10.255Z,53.45
2018-02-19T15:38:37.787Z,53.59
2018-02-19T15:41:05.322Z,53.88
2018-02-19T15:43:32.907Z,53.68
2018-02-19T15:46:00.702Z,53.70
2018-02-19T15:48:28.328Z,54.10
2018-02-19T15:50:55.887Z,53.74
2018-02-19T15:53:23.744Z,53.46
2018-02-19T15:55:51.512Z,53.72
2018-02-19T15:58:19.078Z,53.72
2018-02-19T16:00:46.607Z,53.65
2018-02-19T16:03:14.398Z,54.02
2018-02-19T16:05:41.958Z,53.80
2018-02-19T16:08:09.822Z,53.98
2018-02-19T16:10:37.359Z,54.31
2018-02-19T16:13:04.952Z,54.50
2018-02-19T16:15:32.480Z,54.67
2018-02-19T16:18:00.007Z,54.59
2018-02-19T16:20:27.828Z,54.32
2018-02-19T16:22:55.356Z,54.25
2018-02-19T16:25:23.169Z,54.81
2018-02-19T16:27:50.730Z,54.92
2018-02-19T16:30:18.587Z,54.91
2018-02-19T16:32:46.123Z,55.31
2018-02-19T16:35:13.684Z,55.54
2018-02-19T16:37:41.469Z,55.57
2018-02-19T16:40:08.997Z,55.48
2018-02-19T16:42:36.549Z,55.67
2018-02-19T16:45:04.112Z,55.66
2018-02-19T16:47:31.932Z,55.09
2018-02-19T16:49:59.483Z,54.85
2018-02-19T16:52:27.037Z,55.35
2018-02-19T16:54:54.591Z,55.63
2018-02-19T16:57:22.226Z,55.10
2018-02-19T16:59:49.764Z,55.36
2018-02-19T17:02:17.596Z,55.49
2018-02-19T17:04:45.459Z,55.71
2018-02-19T17:07:12.987Z,55.67
2018-02-19T17:09:40.516Z,56.18
2018-02-19T17:12:08.075Z,56.29
2018-02-19T17:14:35.606Z,56.54
2018-02-19T17:17:03.150Z,56.81
2018-02-19T17:19:30.756Z,56.83
2018-02-19T17:21:58.346Z,56.79
2018-02-19T17:24:25.989Z,56.85
2018-02-19T17:26:53.561Z,57.06
2018-02-19T17:29:21.104Z,56.92
2018-02-19T17:31:48.655Z,56.98
2018-02-19T17:36:50.021Z,57.21
2018-02-19T17:39:17.586Z,57.18
2018-02-19T17:41:45.136Z,57.51
2018-02-19T17:44:12.649Z,57.25
2018-02-19T17:46:40.458Z,57.03
2018-02-19T17:49:07.995Z,57.16
2018-02-19T17:51:35.577Z,57.28
2018-02-19T17:54:03.325Z,57.54
2018-02-19T17:56:30.963Z,57.36
2018-02-19T17:58:58.502Z,57.28
2018-02-19T18:01:26.327Z,57.02
2018-02-19T18:03:53.880Z,57.27
2018-02-19T18:06:21.406Z,57.64
2018-02-19T18:08:48.969Z,57.95
2018-02-19T18:11:16.510Z,58.04
2018-02-19T18:13:44.050Z,57.49
2018-02-19T18:16:11.658Z,57.32
2018-02-19T18:18:39.255Z,57.40
2018-02-19T18:21:06.788Z,57.25
2018-02-19T18:23:34.345Z,57.54
2018-02-19T18:26:01.914Z,57.86
2018-02-19T18:28:29.480Z,57.69
2018-02-19T18:30:57.041Z,57.99
2018-02-19T18:33:24.796Z,57.75
2018-02-19T18:35:52.466Z,57.62
2018-02-19T18:38:20.162Z,57.77
2018-02-19T18:40:47.715Z,57.35
2018-02-19T18:43:15.286Z,57.69
2018-02-19T18:45:42.916Z,58.08
2018-02-19T18:48:10.448Z,58.12
2018-02-19T18:50:38.151Z,58.08
2018-02-19T18:53:05.780Z,57.86
2018-02-19T18:55:33.502Z,57.98
2018-02-19T18:58:01.076Z,58.15
2018-02-19T19:00:29.875Z,58.10
2018-02-19T19:02:57.518Z,58.12
2018-02-19T19:05:25.099Z,58.20
2018-02-19T19:08:04.454Z,58.19
2018-02-19T19:10:45.766Z,58.40
2018-02-19T19:13:13.394Z,58.34
2018-02-19T19:15:40.970Z,58.06
2018-02-19T19:18:08.522Z,58.05
2018-02-19T19:20:36.124Z,58.17
2018-02-19T19:23:03.652Z,58.21
2018-02-19T19:25:31.258Z,58.31
2018-02-19T19:27:58.833Z,58.36
2018-02-19T19:30:26.360Z,58.20
2018-02-19T19:32:53.934Z,58.07
2018-02-19T19:35:21.740Z,58.14
2018-02-19T19:37:49.550Z,58.37
2018-02-19T19:40:17.150Z,57.69
2018-02-19T19:42:44.724Z,58.07
2018-02-19T19:45:12.274Z,58.33
2018-02-19T19:47:39.811Z,58.37
2018-02-19T19:50:07.363Z,58.39
2018-02-19T19:52:34.928Z,58.53
2018-02-19T19:55:02.902Z,58.54
2018-02-19T19:57:31.347Z,58.46
2018-02-19T19:59:58.931Z,58.39
2018-02-19T20:02:26.467Z,58.60
2018-02-19T20:04:54.084Z,58.42
2018-02-19T20:07:21.642Z,58.47
2018-02-19T20:09:49.161Z,58.57
2018-02-19T20:12:17.178Z,58.72
2018-02-19T20:14:45.417Z,58.87
2018-02-19T20:17:13.142Z,58.87
2018-02-19T20:19:40.732Z,58.84
2018-02-19T20:22:08.348Z,59.03
2018-02-19T20:24:35.887Z,58.92
2018-02-19T20:27:03.740Z,58.96
2018-02-19T20:29:31.602Z,59.08
2018-02-19T20:31:59.146Z,58.71
2018-02-19T20:34:26.777Z,58.71
2018-02-19T20:36:54.411Z,58.50
2018-02-19T20:39:22.244Z,58.72
2018-02-19T20:41:49.798Z,58.72
2018-02-19T20:44:18.546Z,59.15
2018-02-19T20:46:46.073Z,59.26
2018-02-19T20:49:13.662Z,59.40
2018-02-19T20:51:41.191Z,59.28
2018-02-19T20:54:08.715Z,59.39
2018-02-19T20:56:36.303Z,59.62
2018-02-19T20:59:03.858Z,59.48
2018-02-19T21:01:31.388Z,59.67
2018-02-19T21:03:58.983Z,59.72
2018-02-19T21:06:26.524Z,59.49
2018-02-19T21:08:54.034Z,59.62
2018-02-19T21:11:21.584Z,58.99
2018-02-19T21:13:49.250Z,59.37
2018-02-19T21:16:16.779Z,59.54
2018-02-19T21:18:44.359Z,59.47
2018-02-19T21:21:11.923Z,59.50
2018-02-19T21:23:39.471Z,59.41
2018-02-19T21:26:07.019Z,59.45
2018-02-19T21:28:34.542Z,59.34
2018-02-19T21:31:02.363Z,59.18
2018-02-19T21:33:29.966Z,59.44
2018-02-19T21:35:57.580Z,59.10
2018-02-19T21:38:25.143Z,59.34
2018-02-19T21:40:52.729Z,59.22
2018-02-19T21:43:20.265Z,59.02
2018-02-19T21:45:47.774Z,58.93
2018-02-19T21:48:16.187Z,58.87
2018-02-19T21:50:44.975Z,59.04
2018-02-19T21:53:12.505Z,59.21
2018-02-19T21:55:40.077Z,59.52
2018-02-19T21:58:07.684Z,59.21
2018-02-19T22:00:35.256Z,59.48
2018-02-19T22:03:02.888Z,59.48
2018-02-19T22:05:30.677Z,59.20
2018-02-19T22:07:58.197Z,59.24
2018-02-19T22:10:26.109Z,58.86
2018-02-19T22:12:53.718Z,59.13
2018-02-19T22:15:21.247Z,58.78
2018-02-19T22:17:48.826Z,59.05
2018-02-19T22:20:16.647Z,59.32
2018-02-19T22:22:44.428Z,59.41
2018-02-19T22:25:11.999Z,59.66
2018-02-19T22:27:39.512Z,59.71
2018-02-19T22:30:07.039Z,59.63
2018-02-19T22:32:34.601Z,59.30
2018-02-19T22:35:02.124Z,59.56
2018-02-19T22:37:29.669Z,59.45
2018-02-19T22:39:57.248Z,59.74
2018-02-19T22:42:25.106Z,59.65
2018-02-19T22:44:52.640Z,59.98
2018-02-19T22:47:20.204Z,59.81
2018-02-19T22:49:47.739Z,60.03
2018-02-19T22:52:15.549Z,60.06
2018-02-19T22:54:43.158Z,59.89
2018-02-19T22:57:10.978Z,60.26
2018-02-19T22:59:38.744Z,60.64
2018-02-19T23:02:06.335Z,60.79
2018-02-19T23:04:33.922Z,60.59
2018-02-19T23:07:01.740Z,59.99
2018-02-19T23:09:29.294Z,60.07
2018-02-19T23:11:57.058Z,60.33
2018-02-19T23:14:24.827Z,60.56
2018-02-19T23:16:52.397Z,60.57
2018-02-19T23:19:19.952Z,60.82
2018-02-19T23:21:47.480Z,60.71
2018-02-19T23:24:15.066Z,60.69
2018-02-19T23:26:42.597Z,61.02
2018-02-19T23:29:10.126Z,61.36
2018-02-19T23:31:37.666Z,61.09
2018-02-19T23:34:05.627Z,61.33
2018-02-19T23:36:33.498Z,60.87
2018-02-19T23:39:01.060Z,61.33
2018-02-19T23:41:28.919Z,61.39
2018-02-19T23:43:56.780Z,61.64
2018-02-19T23:46:24.344Z,61.69
2018-02-19T23:48:52.111Z,61.61
2018-02-19T23:51:19.643Z,61.44
2018-02-19T23:53:47.195Z,61.84
2018-02-19T23:56:14.729Z,61.99
2018-02-19T23:58:42.288Z,61.88
